createdAt,value
2023-04-27T00:04:58.743Z,100646.59
2023-04-27T00:10:01.653Z,100640.47
2023-04-27T00:15:06.838Z,100641.44
2023-04-27T00:20:12.007Z,100638.88
2023-04-27T00:25:14.861Z,100635.41
2023-04-27T00:30:19.299Z,100629.31
2023-04-27T00:35:22.106Z,100634.66
2023-04-27T00:40:24.840Z,100636.56
2023-04-27T00:45:29.669Z,100639.25
2023-04-27T00:50:32.642Z,100634.88
2023-04-27T00:55:35.805Z,100630.53
2023-04-27T01:00:40.306Z,100643.94
2023-04-27T01:05:43.121Z,100643.06
2023-04-27T01:10:46.403Z,100634.28
2023-04-27T01:15:50.610Z,100647.66
2023-04-27T01:20:53.904Z,100645.00
2023-04-27T01:25:58.070Z,100646.91
2023-04-27T01:31:00.899Z,100649.81
2023-04-27T01:36:03.794Z,100657.84
2023-04-27T01:41:09.219Z,100666.88
2023-04-27T01:46:14.081Z,100667.75
2023-04-27T01:51:16.899Z,100666.88
2023-04-27T01:56:22.411Z,100674.06
2023-04-27T02:01:25.274Z,100667.84
2023-04-27T02:06:28.701Z,100654.09
2023-04-27T02:11:32.957Z,100675.13
2023-04-27T02:16:36.044Z,100675.13
2023-04-27T02:21:40.617Z,100676.19
2023-04-27T02:26:44.728Z,100682.50
2023-04-27T02:31:47.895Z,100686.88
2023-04-27T02:36:50.707Z,100687.00
2023-04-27T02:41:54.907Z,100692.13
2023-04-27T02:46:57.730Z,100693.19
2023-04-27T02:52:00.552Z,100687.94
2023-04-27T02:57:04.929Z,100695.03
2023-04-27T03:02:08.130Z,100702.34
2023-04-27T03:07:11.209Z,100702.34
2023-04-27T03:12:15.375Z,100700.63
2023-04-27T03:17:18.144Z,100707.78
2023-04-27T03:22:23.809Z,100705.22
2023-04-27T03:27:27.930Z,100716.75
2023-04-27T03:32:30.948Z,100718.25
2023-04-27T03:37:34.266Z,100724.69
2023-04-27T03:42:38.596Z,100719.53
2023-04-27T03:47:41.642Z,100721.34
2023-04-27T03:52:44.505Z,100727.78
2023-04-27T03:57:48.896Z,100729.56
2023-04-27T04:02:52.727Z,100737.56
2023-04-27T04:07:56.140Z,100740.47
2023-04-27T04:13:00.999Z,100751.16
2023-04-27T04:18:04.161Z,100754.78
2023-04-27T04:23:07.992Z,100761.97
2023-04-27T04:28:13.306Z,100761.84
2023-04-27T04:33:17.386Z,100770.94
2023-04-27T04:38:20.454Z,100772.66
2023-04-27T04:43:25.412Z,100784.97
2023-04-27T04:48:29.429Z,100787.66
2023-04-27T04:53:32.450Z,100778.75
2023-04-27T04:58:37.226Z,100776.94
2023-04-27T05:03:42.195Z,100774.97
2023-04-27T05:08:46.733Z,100765.78
2023-04-27T05:13:51.042Z,100772.09
2023-04-27T05:18:54.739Z,100764.81
2023-04-27T05:24:00.225Z,100763.97
2023-04-27T05:29:05.615Z,100775.44
2023-04-27T05:34:12.447Z,100765.59
2023-04-27T05:39:20.623Z,100773.38
2023-04-27T05:44:28.775Z,100765.59
2023-04-27T05:49:31.659Z,100784.94
2023-04-27T05:54:34.494Z,100772.31
2023-04-27T05:59:38.712Z,100772.19
2023-04-27T06:04:52.262Z,100778.41
2023-04-27T06:10:01.576Z,100781.47
2023-04-27T06:15:10.837Z,100781.31
2023-04-27T06:20:15.473Z,100782.91
2023-04-27T06:25:20.070Z,100785.50
2023-04-27T06:30:29.359Z,100789.88
2023-04-27T06:35:44.581Z,100789.03
2023-04-27T06:40:54.276Z,100793.22
2023-04-27T06:46:05.956Z,100799.94
2023-04-27T06:51:11.183Z,100811.34
2023-04-27T06:56:18.646Z,100814.78
2023-04-27T07:01:31.015Z,100809.22
2023-04-27T07:06:41.273Z,100803.97
2023-04-27T07:11:46.099Z,100813.25
2023-04-27T07:16:53.196Z,100814.72
2023-04-27T07:22:17.568Z,100814.75
2023-04-27T07:27:38.038Z,100821.25
2023-04-27T07:32:49.348Z,100818.22
2023-04-27T07:37:55.762Z,100826.75
2023-04-27T07:43:08.605Z,100832.75
2023-04-27T07:48:20.419Z,100834.31
2023-04-27T07:53:24.433Z,100830.31
2023-04-27T07:58:33.852Z,100827.06
2023-04-27T08:03:46.714Z,100825.84
2023-04-27T08:08:56.992Z,100821.91
2023-04-27T08:14:09.131Z,100840.38
2023-04-27T08:19:16.360Z,100832.88
2023-04-27T08:24:22.031Z,100835.00
2023-04-27T08:29:28.820Z,100835.56
2023-04-27T08:34:39.434Z,100837.84
2023-04-27T08:39:42.199Z,100833.44
2023-04-27T08:44:47.084Z,100824.16
2023-04-27T08:49:59.516Z,100827.06
2023-04-27T08:55:07.739Z,100825.78
2023-04-27T09:00:19.118Z,100819.28
2023-04-27T09:05:33.401Z,100824.53
2023-04-27T09:10:49.150Z,100813.50
2023-04-27T09:15:58.422Z,100816.94
2023-04-27T09:21:10.099Z,100821.44
2023-04-27T09:26:22.926Z,100815.91
2023-04-27T09:31:42.431Z,100807.47
2023-04-27T09:36:50.809Z,100803.63
2023-04-27T09:41:56.689Z,100810.34
2023-04-27T09:47:08.521Z,100797.13
2023-04-27T09:52:22.478Z,100802.59
2023-04-27T09:57:30.219Z,100794.56
2023-04-27T10:02:42.988Z,100796.84
2023-04-27T10:07:56.600Z,100793.47
2023-04-27T10:13:01.890Z,100792.38
2023-04-27T10:18:05.679Z,100788.19
2023-04-27T10:23:12.346Z,100791.06
2023-04-27T10:28:22.302Z,100783.03
2023-04-27T10:33:34.585Z,100789.16
2023-04-27T10:38:48.486Z,100790.88
2023-04-27T10:43:52.093Z,100796.78
2023-04-27T10:48:55.512Z,100789.59
2023-04-27T10:54:07.665Z,100785.66
2023-04-27T10:59:13.877Z,100778.59
2023-04-27T11:04:19.168Z,100786.72
2023-04-27T11:09:32.363Z,100786.91
2023-04-27T11:14:38.912Z,100787.78
2023-04-27T11:19:54.731Z,100796.78
2023-04-27T11:25:01.674Z,100799.16
2023-04-27T11:30:05.612Z,100801.63
2023-04-27T11:35:10.306Z,100812.34
2023-04-27T11:40:15.838Z,100805.06
2023-04-27T11:45:18.715Z,100801.13
2023-04-27T11:50:24.451Z,100799.94
2023-04-27T11:55:28.669Z,100790.66
2023-04-27T12:00:31.634Z,100798.88
2023-04-27T12:05:35.895Z,100785.69
2023-04-27T12:10:52.646Z,100800.78
2023-04-27T12:16:13.124Z,100791.53
2023-04-27T12:21:19.461Z,100785.81
2023-04-27T12:26:32.997Z,100787.00
2023-04-27T12:31:38.157Z,100790.50
2023-04-27T12:36:43.038Z,100782.22
2023-04-27T12:41:49.062Z,100768.91
2023-04-27T12:46:53.172Z,100774.53
2023-04-27T12:52:08.991Z,100773.59
2023-04-27T12:57:30.121Z,100767.53
2023-04-27T13:02:41.041Z,100781.34
2023-04-27T13:07:45.371Z,100783.59
2023-04-27T13:12:51.590Z,100776.03
2023-04-27T13:17:58.021Z,100775.34
2023-04-27T13:23:06.667Z,100776.41
2023-04-27T13:28:19.649Z,100769.66
2023-04-27T13:33:37.131Z,100760.38
2023-04-27T13:38:49.288Z,100756.94
2023-04-27T13:44:06.009Z,100751.25
2023-04-27T13:49:15.625Z,100739.00
2023-04-27T13:54:24.896Z,100733.31
2023-04-27T13:59:29.155Z,100730.22
2023-04-27T14:04:32.045Z,100723.16
2023-04-27T14:09:34.900Z,100734.50
2023-04-27T14:14:39.251Z,100730.56
2023-04-27T14:19:42.950Z,100734.03
2023-04-27T14:24:48.560Z,100718.09
2023-04-27T14:30:01.355Z,100714.03
2023-04-27T14:35:14.156Z,100711.03
2023-04-27T14:40:30.340Z,100712.63
2023-04-27T14:45:52.733Z,100715.31
2023-04-27T14:51:12.325Z,100715.00
2023-04-27T14:56:31.115Z,100716.56
2023-04-27T15:01:51.677Z,100717.22
2023-04-27T15:06:57.961Z,100720.19
2023-04-27T15:12:05.352Z,100713.16
2023-04-27T15:17:13.214Z,100702.41
2023-04-27T15:22:24.510Z,100705.34
2023-04-27T15:27:31.174Z,100702.41
2023-04-27T15:32:38.708Z,100703.09
2023-04-27T15:37:42.263Z,100693.22
2023-04-27T15:42:45.558Z,100699.53
2023-04-27T15:47:49.946Z,100690.09
2023-04-27T15:52:52.931Z,100688.38
2023-04-27T15:57:55.904Z,100676.75
2023-04-27T16:03:00.598Z,100678.16
2023-04-27T16:08:03.472Z,100679.66
2023-04-27T16:13:06.372Z,100677.53
2023-04-27T16:18:10.834Z,100673.81
2023-04-27T16:23:13.664Z,100662.00
2023-04-27T16:28:17.954Z,100666.88
2023-04-27T16:33:22.349Z,100662.44
2023-04-27T16:38:25.410Z,100659.97
2023-04-27T16:43:29.864Z,100657.78
2023-04-27T16:48:34.283Z,100665.75
2023-04-27T16:53:37.562Z,100663.78
2023-04-27T16:58:40.930Z,100665.59
2023-04-27T17:03:45.737Z,100673.09
2023-04-27T17:08:48.642Z,100661.00
2023-04-27T17:13:51.622Z,100668.25
2023-04-27T17:18:56.140Z,100662.97
2023-04-27T17:23:58.955Z,100669.31
2023-04-27T17:29:01.803Z,100666.47
2023-04-27T17:34:06.657Z,100666.25
2023-04-27T17:39:09.535Z,100673.47
2023-04-27T17:44:12.696Z,100676.91
2023-04-27T17:49:17.200Z,100674.69
2023-04-27T17:54:20.009Z,100677.78
2023-04-27T17:59:22.932Z,100683.63
2023-04-27T18:04:27.263Z,100682.28
2023-04-27T18:09:32.742Z,100688.78
2023-04-27T18:14:35.850Z,100689.25
2023-04-27T18:19:40.471Z,100693.91
2023-04-27T18:24:44.879Z,100689.63
2023-04-27T18:29:47.743Z,100691.91
2023-04-27T18:34:51.982Z,100695.59
2023-04-27T18:39:54.760Z,100703.28
2023-04-27T18:45:00.519Z,100715.09
2023-04-27T18:50:05.944Z,100705.19
2023-04-27T18:55:13.926Z,100713.09
2023-04-27T19:00:17.470Z,100715.22
2023-04-27T19:05:21.773Z,100709.97
2023-04-27T19:10:24.701Z,100711.28
2023-04-27T19:15:27.798Z,100696.00
2023-04-27T19:20:32.045Z,100693.69
2023-04-27T19:25:34.937Z,100697.97
2023-04-27T19:30:37.842Z,100697.22
2023-04-27T19:35:41.984Z,100701.63
2023-04-27T19:40:44.739Z,100705.63
2023-04-27T19:45:49.005Z,100703.72
2023-04-27T19:50:54.696Z,100709.19
2023-04-27T19:56:00.096Z,100702.00
2023-04-27T20:01:32.483Z,100707.59
2023-04-27T20:06:36.696Z,100715.44
2023-04-27T20:11:40.716Z,100701.38
2023-04-27T20:16:43.604Z,100704.91
2023-04-27T20:21:47.860Z,100709.44
2023-04-27T20:26:50.662Z,100715.91
2023-04-27T20:31:53.612Z,100715.78
2023-04-27T20:36:57.927Z,100716.63
2023-04-27T20:42:00.727Z,100706.34
2023-04-27T20:47:03.518Z,100703.78
2023-04-27T20:52:07.688Z,100698.19
2023-04-27T20:57:13.706Z,100683.97
2023-04-27T21:02:16.849Z,100689.28
2023-04-27T21:07:21.055Z,100678.59
2023-04-27T21:12:23.800Z,100679.47
2023-04-27T21:17:26.581Z,100670.66
2023-04-27T21:22:30.695Z,100670.53
2023-04-27T21:27:33.426Z,100666.13
2023-04-27T21:32:36.344Z,100664.56
2023-04-27T21:37:40.519Z,100664.44
2023-04-27T21:42:43.297Z,100663.56
2023-04-27T21:47:46.195Z,100661.63
2023-04-27T21:52:50.651Z,100662.00
2023-04-27T21:57:53.590Z,100665.41
2023-04-27T22:02:56.643Z,100671.66
2023-04-27T22:08:00.906Z,100669.19
2023-04-27T22:13:17.606Z,100667.81
2023-04-27T22:18:20.913Z,100668.31
2023-04-27T22:23:25.274Z,100667.56
2023-04-27T22:28:28.045Z,100663.13
2023-04-27T22:33:30.902Z,100664.53
2023-04-27T22:38:35.076Z,100660.38
2023-04-27T22:43:37.884Z,100659.88
2023-04-27T22:48:40.907Z,100661.63
2023-04-27T22:53:45.081Z,100651.19
2023-04-27T22:58:47.992Z,100649.38
2023-04-27T23:03:51.310Z,100653.22
2023-04-27T23:08:56.612Z,100646.06
2023-04-27T23:13:59.348Z,100636.53
2023-04-27T23:19:02.088Z,100631.00
2023-04-27T23:24:07.276Z,100624.47
2023-04-27T23:29:10.207Z,100618.50
2023-04-27T23:34:13.296Z,100619.00
2023-04-27T23:39:17.639Z,100610.28
2023-04-27T23:44:20.419Z,100604.91
2023-04-27T23:49:23.191Z,100590.16
2023-04-27T23:54:30.960Z,100592.28
2023-04-27T23:59:34.717Z,100576.53
